Hlavní strana
METAR-TAF:

METAR-TAF

Letiště :

Aktobe, Kazachstán

zeměpisná šířka: 50-17N, zeměpisná délka: 057-09E, výška: 227 m

Aktuální stav počasí

Zpráva byla vytvořena před 13 minutami, v 13:30 UTC
Západní vítr 10 kt
Teplota 11°C
Vlhkost vzduchu 35%
Tlak 1021 hPa
Viditelnost 10 km a více
Žádná oblačnost pod 1500 m, nevyskytují se cumulonimby.

METAR: UATT 191330Z 26005MPS CAVOK 11/M04 Q1021 R31/70D NOSIG RMK QFE746/0994

Čas: 18:43 (13:43 UTC)

Předpověď počasí

Zpráva byla vytvořena před 2 hodinami a 43 minutami, v 11:00 UTC
Předpověď platná od 19 v 12 UTC do 20 v 12 UTC
Západojihozápadní vítr 10 kt
Viditelnost 10 km a více
Polojasno ve výšce 2000 ft
Dočasný
od 19 v 20 UTC do 20 v 06 UTC
Viditelnost: 3000 m
Oblačno až skoro zataženo ve výšce 1000 ft
kouřmo

TAF: UATT 191100Z 1912/2012 25005MPS 9999 SCT020 TX16/2011Z TN00/2001Z TEMPO 1920/2006 3000 BR BKN010

Stav a předpovědi počasí z více než 4 000 letišť (zprávy METAR a TAF).

Červené a žluté tečky na mapě představují dostupné meteorologické stanice.

Když kurzor umístíte na tečku, zobrazí se název stanice.

Pak kliknutím zobrazíte stav a předpověď počasí.

Chcete-li změnit mapu, kliknutím na zelené tlačítko se znaménkem +mapu přiblížíte, kliknutím na zelené tlačítko se znaménkem – mapu oddálíte a kliknutím na zelené šipky přejdete na sousední mapy.


METAR-TAF: